Time;durP1;ratioP1;P1;durP2;ratioP2;P2;SDS_P1;SDS_P2;PMS_P1;PMS_P2;Temp;Humidity;BMP_temperature;BMP_pressure;BME280_temperature;BME280_humidity;BME280_pressure;Samples;Min_cycle;Max_cycle;Signal;HPM_P1;HPM_P2
2023/04/23 00:00:11;;;;;;;37.88;20.42;;;7.70;99.90;;;;;;5035220;28;20080;-59
2023/04/23 00:02:37;;;;;;;33.03;20.45;;;7.60;99.90;;;;;;5038232;28;20051;-60
2023/04/23 00:05:05;;;;;;;34.72;22.00;;;7.60;99.90;;;;;;5036964;28;20045;-58
2023/04/23 00:07:35;;;;;;;37.00;21.67;;;7.60;99.90;;;;;;5022647;28;20509;-59
2023/04/23 00:10:04;;;;;;;31.30;19.08;;;7.60;99.90;;;;;;5010024;28;20041;-60
2023/04/23 00:12:30;;;;;;;31.83;19.55;;;7.60;99.90;;;;;;5037566;28;20053;-60
2023/04/23 00:14:56;;;;;;;38.97;24.50;;;7.60;99.90;;;;;;5036979;28;20037;-59
2023/04/23 00:17:22;;;;;;;39.13;23.08;;;7.60;99.90;;;;;;5018431;28;20105;-59
2023/04/23 00:19:48;;;;;;;43.03;25.13;;;7.60;99.90;;;;;;5035001;28;20046;-58
2023/04/23 00:22:15;;;;;;;43.78;26.08;;;7.60;99.90;;;;;;5010608;28;20057;-59
2023/04/23 00:24:41;;;;;;;49.92;29.30;;;7.60;99.90;;;;;;5022587;28;20111;-58
2023/04/23 00:27:07;;;;;;;48.05;25.70;;;7.60;99.90;;;;;;5038010;28;20037;-58
2023/04/23 00:29:33;;;;;;;49.15;28.42;;;7.60;99.90;;;;;;5037506;28;20052;-58
2023/04/23 00:31:59;;;;;;;53.85;29.80;;;7.60;99.90;;;;;;5031324;28;20124;-59
2023/04/23 00:34:25;;;;;;;65.07;33.55;;;7.70;99.90;;;;;;5018111;28;20060;-60
2023/04/23 00:36:50;;;;;;;70.32;37.17;;;7.60;99.90;;;;;;5026053;28;20410;-59
2023/04/23 00:39:16;;;;;;;72.07;35.00;;;7.70;99.90;;;;;;5028891;28;20057;-59
2023/04/23 00:41:43;;;;;;;68.50;35.05;;;7.70;99.90;;;;;;5021649;28;20120;-59
2023/04/23 00:44:09;;;;;;;61.38;32.75;;;7.70;99.90;;;;;;5027777;28;20101;-59
2023/04/23 00:46:35;;;;;;;70.85;38.42;;;7.80;99.90;;;;;;5037622;28;20052;-59
2023/04/23 00:49:02;;;;;;;64.15;35.20;;;7.70;99.90;;;;;;5018928;28;20060;-58
2023/04/23 00:51:28;;;;;;;75.65;38.63;;;7.60;99.90;;;;;;5034299;28;20056;-59
2023/04/23 00:53:55;;;;;;;78.85;41.58;;;7.70;99.90;;;;;;5027659;28;20052;-60
2023/04/23 00:56:25;;;;;;;66.05;34.55;;;7.80;99.90;;;;;;5024678;28;20480;-59
2023/04/23 00:58:51;;;;;;;88.75;45.00;;;7.70;99.90;;;;;;5040427;28;20421;-60
2023/04/23 01:01:19;;;;;;;84.82;41.00;;;7.80;99.90;;;;;;5039436;28;20072;-60
2023/04/23 01:03:51;;;;;;;83.22;41.17;;;7.80;99.90;;;;;;5038609;28;20041;-59
2023/04/23 01:06:17;;;;;;;83.22;40.90;;;7.80;99.90;;;;;;5034107;28;20103;-58
2023/04/23 01:08:45;;;;;;;97.45;47.08;;;7.90;99.90;;;;;;5031982;28;20773;-61
2023/04/23 01:11:13;;;;;;;95.30;46.13;;;7.90;99.90;;;;;;5035891;28;20070;-59
2023/04/23 01:13:41;;;;;;;84.85;43.95;;;8.00;99.90;;;;;;5014775;28;20050;-59
2023/04/23 01:16:07;;;;;;;99.10;47.33;;;8.00;99.90;;;;;;5030059;28;20057;-59
2023/04/23 01:18:33;;;;;;;95.05;47.30;;;7.90;99.90;;;;;;5030946;28;20037;-59
2023/04/23 01:20:58;;;;;;;89.95;43.72;;;8.00;99.90;;;;;;5032602;28;20047;-59
2023/04/23 01:23:26;;;;;;;101.43;50.72;;;8.00;99.90;;;;;;5031374;28;20064;-59
2023/04/23 01:25:52;;;;;;;107.18;50.63;;;7.90;99.90;;;;;;5014287;28;20140;-59
2023/04/23 01:28:18;;;;;;;106.10;50.80;;;7.90;99.90;;;;;;5040324;28;20041;-59
2023/04/23 01:30:45;;;;;;;107.00;50.47;;;7.80;99.90;;;;;;5018129;28;20041;-60
2023/04/23 01:33:11;;;;;;;110.30;49.20;;;7.90;99.90;;;;;;5039987;28;20108;-60
2023/04/23 01:35:37;;;;;;;98.10;46.00;;;7.90;99.90;;;;;;5030321;28;20046;-58
2023/04/23 01:38:04;;;;;;;98.80;47.50;;;7.80;99.90;;;;;;5039573;28;20041;-59
2023/04/23 01:40:30;;;;;;;114.97;52.55;;;7.80;99.90;;;;;;5037255;28;20285;-59
2023/04/23 01:42:56;;;;;;;109.95;51.35;;;7.80;99.90;;;;;;5037844;28;20037;-59
2023/04/23 01:45:22;;;;;;;115.03;51.67;;;7.80;99.90;;;;;;5038651;28;20425;-59
2023/04/23 01:47:48;;;;;;;88.15;41.95;;;7.70;99.90;;;;;;5030808;28;20040;-59
2023/04/23 01:50:14;;;;;;;104.93;50.53;;;7.70;99.90;;;;;;5035708;28;20077;-58
2023/04/23 01:52:40;;;;;;;112.90;52.65;;;7.70;99.90;;;;;;5037445;28;20044;-58
2023/04/23 01:55:07;;;;;;;94.95;46.58;;;7.70;99.90;;;;;;5037301;28;20060;-59
2023/04/23 01:57:33;;;;;;;117.60;52.50;;;7.60;99.90;;;;;;5036141;28;20037;-58
2023/04/23 02:00:10;;;;;;;88.00;43.03;;;7.60;99.90;;;;;;5028713;28;20045;-59
2023/04/23 02:02:37;;;;;;;79.85;43.22;;;7.60;99.90;;;;;;5031970;28;20445;-58
2023/04/23 02:05:08;;;;;;;91.53;44.20;;;7.60;99.90;;;;;;5015717;28;20520;-60
2023/04/23 02:07:35;;;;;;;105.43;47.53;;;7.50;99.90;;;;;;5029128;28;20357;-59
2023/04/23 02:10:01;;;;;;;102.18;49.35;;;7.50;99.90;;;;;;5028628;28;20072;-61
2023/04/23 02:12:27;;;;;;;84.75;42.65;;;7.50;99.90;;;;;;5039200;28;20054;-59
2023/04/23 02:14:53;;;;;;;80.18;39.60;;;7.40;99.90;;;;;;5038896;28;20053;-59
2023/04/23 02:17:21;;;;;;;99.32;47.15;;;7.40;99.90;;;;;;5038827;28;20041;-59
2023/04/23 02:19:48;;;;;;;95.25;44.75;;;7.40;99.90;;;;;;5036132;28;20041;-59
2023/04/23 02:22:14;;;;;;;116.72;49.92;;;7.40;99.90;;;;;;5035270;28;20041;-59
2023/04/23 02:24:40;;;;;;;86.82;42.20;;;7.40;99.90;;;;;;5021750;28;20064;-59
2023/04/23 02:27:07;;;;;;;97.05;46.97;;;7.50;99.90;;;;;;5038068;28;20055;-59
2023/04/23 02:29:33;;;;;;;88.43;43.58;;;7.40;99.90;;;;;;5037843;28;20106;-59
2023/04/23 02:31:59;;;;;;;77.65;40.85;;;7.30;99.90;;;;;;5036084;28;20049;-60
2023/04/23 02:34:24;;;;;;;86.47;42.83;;;7.30;99.90;;;;;;5029961;28;20439;-59
2023/04/23 02:36:51;;;;;;;113.03;49.70;;;7.30;99.90;;;;;;5023941;28;20074;-60
2023/04/23 02:39:17;;;;;;;117.80;51.72;;;7.20;99.90;;;;;;5027646;28;20042;-59
2023/04/23 02:41:43;;;;;;;86.13;43.13;;;7.20;99.90;;;;;;5033325;28;20044;-59
2023/04/23 02:44:08;;;;;;;99.43;44.90;;;7.20;99.90;;;;;;5038646;28;20197;-59
2023/04/23 02:46:36;;;;;;;106.72;47.72;;;7.20;99.90;;;;;;5033811;28;20067;-60
2023/04/23 02:49:02;;;;;;;110.35;51.70;;;7.30;99.90;;;;;;5018823;28;20063;-59
2023/04/23 02:51:28;;;;;;;127.75;51.58;;;7.20;99.90;;;;;;5035614;28;20048;-59
2023/04/23 02:53:53;;;;;;;140.52;49.88;;;7.10;99.90;;;;;;5033076;28;20088;-59
2023/04/23 02:56:19;;;;;;;110.50;48.85;;;7.10;99.90;;;;;;5016360;28;20041;-59
2023/04/23 02:58:45;;;;;;;127.50;53.15;;;7.10;99.90;;;;;;5018444;28;20034;-59
2023/04/23 03:01:11;;;;;;;122.50;52.60;;;7.10;99.90;;;;;;5035318;28;20049;-60
2023/04/23 03:03:37;;;;;;;98.47;46.17;;;7.20;99.90;;;;;;5038262;28;20060;-59
2023/04/23 03:06:03;;;;;;;155.98;53.08;;;7.20;99.90;;;;;;5005162;28;20114;-59
2023/04/23 03:08:29;;;;;;;122.70;46.83;;;7.20;99.90;;;;;;5036413;28;20048;-59
2023/04/23 03:10:54;;;;;;;107.25;47.13;;;7.20;99.90;;;;;;5030224;28;20121;-60
2023/04/23 03:13:20;;;;;;;114.22;46.42;;;7.20;99.90;;;;;;5036734;28;20058;-61
2023/04/23 03:15:46;;;;;;;169.55;49.65;;;7.20;99.90;;;;;;5029012;28;20514;-59
2023/04/23 03:18:12;;;;;;;604.33;66.20;;;7.20;99.90;;;;;;5038462;28;20175;-59
2023/04/23 03:20:38;;;;;;;113.25;47.17;;;7.10;99.90;;;;;;5039023;28;20045;-58
2023/04/23 03:23:06;;;;;;;316.67;53.97;;;7.30;99.90;;;;;;5040683;28;20108;-60
2023/04/23 03:25:33;;;;;;;107.70;44.95;;;7.20;99.90;;;;;;5035840;28;20517;-59
2023/04/23 03:27:59;;;;;;;116.40;47.70;;;7.20;99.90;;;;;;5036009;28;20141;-61
2023/04/23 03:30:26;;;;;;;225.57;53.25;;;7.20;99.90;;;;;;5033548;28;20033;-59
2023/04/23 03:32:54;;;;;;;89.53;44.20;;;7.20;99.90;;;;;;5029762;28;20551;-59
2023/04/23 03:35:20;;;;;;;104.57;43.42;;;7.30;99.90;;;;;;5036618;28;20081;-59
2023/04/23 03:37:46;;;;;;;84.25;40.65;;;7.30;99.90;;;;;;5038630;28;20045;-59
2023/04/23 03:40:11;;;;;;;131.15;42.65;;;7.30;99.90;;;;;;5038315;28;20052;-59
2023/04/23 03:42:37;;;;;;;263.48;51.15;;;7.30;99.90;;;;;;5028127;28;20038;-59
2023/04/23 03:45:03;;;;;;;256.58;49.72;;;7.30;99.90;;;;;;5038390;28;20045;-59
2023/04/23 03:47:29;;;;;;;99.97;41.85;;;7.30;99.90;;;;;;5030713;28;20080;-60
2023/04/23 03:49:56;;;;;;;100.65;43.08;;;7.30;99.90;;;;;;5035737;28;20049;-59
2023/04/23 03:52:22;;;;;;;89.07;42.33;;;7.30;99.90;;;;;;5033926;28;20037;-59
2023/04/23 03:54:47;;;;;;;92.72;43.10;;;7.40;99.90;;;;;;5023242;28;20072;-59
2023/04/23 03:57:13;;;;;;;99.00;45.25;;;7.40;99.90;;;;;;5036678;28;20069;-60
2023/04/23 03:59:39;;;;;;;105.18;46.80;;;7.40;99.90;;;;;;5030405;28;20034;-59
2023/04/23 04:02:05;;;;;;;118.63;46.60;;;7.40;99.90;;;;;;5034466;28;20045;-59
2023/04/23 04:04:31;;;;;;;109.82;47.97;;;7.40;99.90;;;;;;5040637;28;20033;-59
2023/04/23 04:06:59;;;;;;;102.50;46.47;;;7.40;99.90;;;;;;5028410;28;20046;-59
2023/04/23 04:09:25;;;;;;;116.70;50.47;;;7.40;99.90;;;;;;5027952;28;20046;-60
2023/04/23 04:11:53;;;;;;;135.35;53.85;;;7.40;99.90;;;;;;5031672;28;20037;-59
2023/04/23 04:14:19;;;;;;;85.05;42.95;;;7.40;99.90;;;;;;5037534;28;20049;-61
2023/04/23 04:16:45;;;;;;;120.07;52.78;;;7.50;99.90;;;;;;5033243;28;20045;-59
2023/04/23 04:19:11;;;;;;;131.52;49.75;;;7.50;99.90;;;;;;5024877;28;20429;-59
2023/04/23 04:21:36;;;;;;;156.00;56.88;;;7.50;99.90;;;;;;5028228;28;20073;-58
2023/04/23 04:24:03;;;;;;;108.35;49.10;;;7.50;99.90;;;;;;5033849;28;20046;-58
2023/04/23 04:26:31;;;;;;;125.38;52.97;;;7.50;99.90;;;;;;5039082;28;20049;-60
2023/04/23 04:29:03;;;;;;;135.93;54.28;;;7.50;99.90;;;;;;5025003;28;20041;-59
2023/04/23 04:31:29;;;;;;;102.30;47.00;;;7.60;99.90;;;;;;5033118;28;20152;-60
2023/04/23 04:33:56;;;;;;;117.80;51.17;;;7.60;99.90;;;;;;5039486;28;20391;-59
2023/04/23 04:36:24;;;;;;;100.68;48.85;;;7.60;99.90;;;;;;5035728;28;20423;-60
2023/04/23 04:38:54;;;;;;;97.88;45.25;;;7.60;99.90;;;;;;5040515;28;20054;-59
2023/04/23 04:41:21;;;;;;;132.73;54.20;;;7.70;99.90;;;;;;5020060;28;20061;-60
2023/04/23 04:43:47;;;;;;;110.30;49.50;;;7.70;99.90;;;;;;5023897;28;20060;-59
2023/04/23 04:46:14;;;;;;;109.07;50.38;;;7.80;99.90;;;;;;5020363;28;20128;-59
2023/04/23 04:48:40;;;;;;;84.47;41.42;;;7.80;99.90;;;;;;5022395;28;20049;-58
2023/04/23 04:51:06;;;;;;;103.95;49.72;;;7.80;99.90;;;;;;5030617;28;20026;-60
2023/04/23 04:53:32;;;;;;;98.75;48.50;;;7.80;99.90;;;;;;5039356;28;20097;-60
2023/04/23 04:55:57;;;;;;;86.95;44.10;;;7.90;99.90;;;;;;5016276;28;20077;-58
2023/04/23 04:58:23;;;;;;;99.50;47.30;;;7.90;99.90;;;;;;5023950;28;20041;-60
2023/04/23 05:00:50;;;;;;;119.32;51.03;;;7.90;99.90;;;;;;5040492;28;20100;-60
2023/04/23 05:03:18;;;;;;;108.85;51.85;;;8.00;99.90;;;;;;5039022;28;20042;-59
2023/04/23 05:05:44;;;;;;;101.80;49.17;;;8.00;99.90;;;;;;5041384;28;20529;-59
2023/04/23 05:08:10;;;;;;;102.07;48.67;;;8.00;99.90;;;;;;5040656;28;20076;-59
2023/04/23 05:10:36;;;;;;;121.18;52.95;;;8.00;99.90;;;;;;5041576;28;20052;-59
2023/04/23 05:13:02;;;;;;;110.63;48.25;;;8.10;99.90;;;;;;5039866;28;20061;-59
2023/04/23 05:15:27;;;;;;;105.90;48.47;;;8.00;99.90;;;;;;5032473;28;20130;-59
2023/04/23 05:17:53;;;;;;;127.90;54.75;;;8.00;99.90;;;;;;5040709;28;20042;-59
2023/04/23 05:20:19;;;;;;;97.70;45.33;;;8.00;99.90;;;;;;5041056;28;20567;-61
2023/04/23 05:22:45;;;;;;;106.80;49.03;;;8.00;99.90;;;;;;5040906;28;20533;-59
2023/04/23 05:25:11;;;;;;;112.45;49.50;;;8.00;99.90;;;;;;5040666;28;20049;-59
2023/04/23 05:27:38;;;;;;;106.60;49.83;;;8.00;99.90;;;;;;5040537;28;20053;-58
2023/04/23 05:30:09;;;;;;;110.57;49.80;;;8.10;99.90;;;;;;5033039;28;20485;-60
2023/04/23 05:32:35;;;;;;;94.60;45.92;;;8.20;99.90;;;;;;5034562;28;20089;-59
2023/04/23 05:35:02;;;;;;;86.10;41.05;;;8.20;99.90;;;;;;5039467;28;20033;-59
2023/04/23 05:37:28;;;;;;;109.43;50.08;;;8.30;99.90;;;;;;5040810;28;20112;-59
2023/04/23 05:39:54;;;;;;;89.75;46.45;;;8.30;99.90;;;;;;5037647;28;20041;-59
2023/04/23 05:42:20;;;;;;;104.85;49.20;;;8.40;99.90;;;;;;5033614;28;20042;-59
2023/04/23 05:44:46;;;;;;;77.63;40.35;;;8.40;99.90;;;;;;5034524;28;20079;-58
2023/04/23 05:47:13;;;;;;;91.60;44.13;;;8.40;99.90;;;;;;5036904;28;20476;-59
2023/04/23 05:49:39;;;;;;;92.05;44.58;;;8.40;99.90;;;;;;5029650;28;20030;-58
2023/04/23 05:52:05;;;;;;;79.90;41.28;;;8.50;99.90;;;;;;5035878;28;20072;-58
2023/04/23 05:54:31;;;;;;;87.00;44.42;;;8.50;99.90;;;;;;5040667;28;20056;-58
2023/04/23 05:56:56;;;;;;;90.15;44.00;;;8.50;99.90;;;;;;5036892;28;20042;-59
2023/04/23 05:59:22;;;;;;;85.82;45.05;;;8.50;99.90;;;;;;5034963;28;20120;-58
2023/04/23 06:01:49;;;;;;;82.60;41.63;;;8.70;99.90;;;;;;5032735;28;20128;-58
2023/04/23 06:04:15;;;;;;;80.13;41.72;;;8.70;99.90;;;;;;5031390;28;20041;-57
2023/04/23 06:06:44;;;;;;;90.43;43.78;;;8.80;99.90;;;;;;5032939;28;20085;-57
2023/04/23 06:09:10;;;;;;;75.38;39.20;;;8.80;99.90;;;;;;5035195;28;20077;-58
2023/04/23 06:11:36;;;;;;;79.30;39.40;;;8.90;99.90;;;;;;5016793;28;20056;-57
2023/04/23 06:14:02;;;;;;;73.18;37.80;;;9.00;99.90;;;;;;4999986;28;20115;-57
2023/04/23 06:16:28;;;;;;;70.47;36.95;;;9.00;99.90;;;;;;5037680;28;20037;-57
2023/04/23 06:18:55;;;;;;;70.13;37.53;;;9.00;99.90;;;;;;5029299;28;20041;-57
2023/04/23 06:21:24;;;;;;;78.05;39.55;;;9.10;99.90;;;;;;5036056;28;20076;-58
2023/04/23 06:23:50;;;;;;;67.18;37.80;;;9.20;99.90;;;;;;5034671;28;20519;-57
2023/04/23 06:26:16;;;;;;;69.32;36.83;;;9.30;99.90;;;;;;5032328;28;20060;-58
2023/04/23 06:28:44;;;;;;;59.92;35.60;;;9.50;99.90;;;;;;5034241;28;20111;-58
2023/04/23 06:31:10;;;;;;;60.63;34.97;;;9.50;99.90;;;;;;5033948;28;20048;-58
2023/04/23 06:33:36;;;;;;;63.58;37.20;;;9.60;99.90;;;;;;5034446;28;20079;-58
2023/04/23 06:36:05;;;;;;;66.18;38.10;;;9.70;99.90;;;;;;5036567;28;20065;-58
2023/04/23 06:38:31;;;;;;;63.97;36.58;;;9.90;99.90;;;;;;5019935;28;20068;-57
2023/04/23 06:40:57;;;;;;;55.15;32.83;;;10.00;99.90;;;;;;5039783;28;20068;-57
2023/04/23 06:43:23;;;;;;;57.42;35.10;;;10.20;99.90;;;;;;5020621;28;20866;-58
2023/04/23 06:45:49;;;;;;;59.60;34.72;;;10.50;99.90;;;;;;5039077;28;20042;-57
2023/04/23 06:48:15;;;;;;;50.70;31.10;;;10.60;99.90;;;;;;5036964;28;20042;-58
2023/04/23 06:50:41;;;;;;;54.45;33.17;;;10.80;99.90;;;;;;5035977;28;20339;-59
2023/04/23 06:53:07;;;;;;;46.80;28.42;;;11.00;99.90;;;;;;5037956;28;20037;-58
2023/04/23 06:55:32;;;;;;;49.15;30.10;;;11.20;99.90;;;;;;5035480;28;20487;-57
2023/04/23 06:57:58;;;;;;;45.83;30.10;;;11.30;99.90;;;;;;5032102;28;20095;-58
2023/04/23 07:00:24;;;;;;;49.88;30.02;;;11.50;99.90;;;;;;5038173;28;20033;-57
2023/04/23 07:02:50;;;;;;;48.05;31.63;;;11.60;99.90;;;;;;5037132;28;20037;-58
2023/04/23 07:05:17;;;;;;;47.42;31.88;;;11.70;99.90;;;;;;5016836;28;20060;-57
2023/04/23 07:07:43;;;;;;;43.10;28.50;;;11.90;99.90;;;;;;5036705;28;20121;-58
2023/04/23 07:10:10;;;;;;;44.28;30.48;;;12.00;99.90;;;;;;5038519;28;20069;-57
2023/04/23 07:12:37;;;;;;;40.60;28.50;;;12.20;99.90;;;;;;5013470;28;20107;-58
2023/04/23 07:15:04;;;;;;;43.92;30.20;;;12.30;99.90;;;;;;5032460;28;20053;-58
2023/04/23 07:17:30;;;;;;;46.50;29.58;;;12.40;99.90;;;;;;5027425;28;20091;-58
2023/04/23 07:19:55;;;;;;;40.22;27.02;;;12.50;99.90;;;;;;5035366;28;20037;-57
2023/04/23 07:22:22;;;;;;;38.72;25.85;;;12.60;99.90;;;;;;5016318;28;20041;-57
2023/04/23 07:24:48;;;;;;;42.67;30.10;;;12.60;99.90;;;;;;5035359;28;20041;-57
2023/04/23 07:27:14;;;;;;;38.83;28.38;;;12.70;99.90;;;;;;5030038;28;20129;-57
2023/04/23 07:29:40;;;;;;;40.25;25.48;;;12.80;99.90;;;;;;5029140;28;20073;-58
2023/04/23 07:32:05;;;;;;;39.25;28.98;;;13.00;99.90;;;;;;5016886;28;20049;-57
2023/04/23 07:34:31;;;;;;;40.47;27.67;;;13.10;99.90;;;;;;5031392;28;20050;-58
2023/04/23 07:36:57;;;;;;;36.03;25.23;;;13.20;99.90;;;;;;5034429;28;20044;-57
2023/04/23 07:39:23;;;;;;;38.30;26.73;;;13.30;99.90;;;;;;5032353;28;20055;-57
2023/04/23 07:41:49;;;;;;;33.55;21.17;;;13.40;99.90;;;;;;5018918;28;20124;-57
2023/04/23 07:44:15;;;;;;;38.58;26.27;;;13.40;99.90;;;;;;5039844;28;20034;-57
2023/04/23 07:46:40;;;;;;;37.63;27.38;;;13.50;99.90;;;;;;5037289;28;20048;-57
2023/04/23 07:49:06;;;;;;;35.42;26.48;;;13.50;99.90;;;;;;5036171;28;20045;-57
2023/04/23 07:51:32;;;;;;;36.38;25.15;;;13.60;99.90;;;;;;5036402;28;20049;-57
2023/04/23 07:53:58;;;;;;;34.63;23.63;;;13.80;99.90;;;;;;5030233;28;20033;-58
2023/04/23 07:56:24;;;;;;;31.15;22.20;;;13.90;99.90;;;;;;5040124;28;20038;-57
2023/04/23 07:58:50;;;;;;;31.60;22.63;;;14.00;99.90;;;;;;5034944;28;20041;-57
2023/04/23 08:01:16;;;;;;;30.58;22.50;;;14.10;99.90;;;;;;5034881;28;20119;-58
2023/04/23 08:03:41;;;;;;;33.95;24.58;;;14.10;99.90;;;;;;5017073;28;20874;-57
2023/04/23 08:06:09;;;;;;;31.45;20.25;;;14.20;99.90;;;;;;5034396;28;20132;-58
2023/04/23 08:08:35;;;;;;;30.80;22.90;;;14.30;99.90;;;;;;5008075;28;20049;-57
2023/04/23 08:11:01;;;;;;;30.42;22.77;;;14.40;99.90;;;;;;5016696;28;20046;-57
2023/04/23 08:13:26;;;;;;;33.10;23.20;;;14.50;99.90;;;;;;5034691;28;20053;-59
2023/04/23 08:15:52;;;;;;;31.65;22.38;;;14.50;99.90;;;;;;5034612;28;20063;-58
2023/04/23 08:18:18;;;;;;;29.83;21.63;;;14.60;99.90;;;;;;5034658;28;20033;-55
2023/04/23 08:20:43;;;;;;;25.67;19.10;;;14.60;99.90;;;;;;5019126;28;20053;-57
2023/04/23 08:23:10;;;;;;;28.88;20.88;;;14.80;99.90;;;;;;5031860;28;20044;-58
2023/04/23 08:25:35;;;;;;;24.00;18.40;;;14.70;99.90;;;;;;5025634;28;20048;-58
2023/04/23 08:28:02;;;;;;;24.38;17.42;;;14.70;99.90;;;;;;5029888;28;20045;-58
2023/04/23 08:30:28;;;;;;;29.10;20.05;;;14.70;99.90;;;;;;5033534;28;20564;-58
2023/04/23 08:32:53;;;;;;;26.10;17.23;;;14.70;99.90;;;;;;5032327;28;20041;-57
2023/04/23 08:35:20;;;;;;;26.70;17.52;;;14.60;99.90;;;;;;5033258;28;20052;-57
2023/04/23 08:37:45;;;;;;;29.70;17.33;;;14.60;99.90;;;;;;5029715;28;20696;-56
2023/04/23 08:40:12;;;;;;;26.48;17.58;;;14.70;99.90;;;;;;5025328;28;20048;-57
2023/04/23 08:42:47;;;;;;;20.35;12.70;;;14.70;99.90;;;;;;5025843;28;20045;-58
2023/04/23 08:45:13;;;;;;;25.98;17.77;;;14.90;99.90;;;;;;5014932;28;20452;-57
2023/04/23 08:47:43;;;;;;;23.70;16.83;;;14.90;99.90;;;;;;5035688;28;20053;-57
2023/04/23 08:50:11;;;;;;;25.10;16.25;;;15.00;99.90;;;;;;5035882;28;20046;-57
2023/04/23 08:52:43;;;;;;;22.00;16.13;;;15.10;99.90;;;;;;5034594;28;20038;-57
2023/04/23 08:55:09;;;;;;;20.05;13.65;;;15.20;99.90;;;;;;5031158;28;20041;-56
2023/04/23 08:57:40;;;;;;;24.95;15.90;;;15.30;99.90;;;;;;5025895;28;20044;-57
2023/04/23 09:00:10;;;;;;;20.58;13.52;;;15.30;99.90;;;;;;5029922;28;20053;-57
2023/04/23 09:02:40;;;;;;;22.35;15.32;;;15.30;99.90;;;;;;5032209;28;20061;-57
2023/04/23 09:05:07;;;;;;;20.65;15.48;;;15.30;99.90;;;;;;5029855;28;20576;-57
2023/04/23 09:07:34;;;;;;;22.27;14.30;;;15.40;99.90;;;;;;5011536;28;20816;-57
2023/04/23 09:10:03;;;;;;;18.25;12.48;;;15.60;99.90;;;;;;5033430;28;20208;-60
2023/04/23 09:12:29;;;;;;;19.23;13.65;;;15.70;99.90;;;;;;5034543;28;20042;-57
2023/04/23 09:14:55;;;;;;;16.30;9.85;;;15.70;99.90;;;;;;5035449;28;20034;-57
2023/04/23 09:17:22;;;;;;;19.80;13.00;;;15.80;99.90;;;;;;5015179;28;20041;-57
2023/04/23 09:19:50;;;;;;;23.10;12.90;;;15.90;99.90;;;;;;5031715;28;20177;-57
2023/04/23 09:22:38;;;;;;;21.65;13.43;;;16.00;99.90;;;;;;5037129;28;20630;-57
2023/04/23 09:25:05;;;;;;;18.95;13.43;;;16.10;99.90;;;;;;5033045;28;20050;-57
2023/04/23 09:27:31;;;;;;;16.77;11.95;;;16.10;99.90;;;;;;5034607;28;20064;-57
2023/04/23 09:29:58;;;;;;;16.38;11.07;;;16.20;99.90;;;;;;5032823;28;20049;-56
2023/04/23 09:32:32;;;;;;;16.90;11.10;;;16.20;99.90;;;;;;5030485;28;20046;-57
2023/04/23 09:34:58;;;;;;;17.08;12.75;;;16.20;99.90;;;;;;5034578;28;20051;-57
2023/04/23 09:37:27;;;;;;;17.77;11.65;;;16.10;99.90;;;;;;5036204;28;20069;-57
2023/04/23 09:39:55;;;;;;;19.95;10.65;;;16.10;99.90;;;;;;5021955;28;20037;-57
2023/04/23 09:42:23;;;;;;;17.98;11.88;;;16.10;99.90;;;;;;5016880;28;20042;-57
2023/04/23 09:45:05;;;;;;;16.83;12.57;;;16.20;99.90;;;;;;5027028;28;20041;-57
2023/04/23 09:47:37;;;;;;;17.52;12.02;;;16.20;99.90;;;;;;5026443;28;20125;-57
2023/04/23 09:50:03;;;;;;;17.38;11.38;;;16.40;99.90;;;;;;5033603;28;20049;-57
2023/04/23 09:52:33;;;;;;;15.95;12.23;;;16.50;99.90;;;;;;5033983;28;20037;-57
2023/04/23 09:55:04;;;;;;;18.23;11.80;;;16.60;99.90;;;;;;5036998;28;20053;-57
2023/04/23 09:57:35;;;;;;;16.13;10.75;;;16.50;99.90;;;;;;5016628;28;20048;-57
2023/04/23 10:00:12;;;;;;;14.95;10.68;;;16.50;99.90;;;;;;5035211;28;20045;-58
2023/04/23 10:02:38;;;;;;;12.93;9.60;;;16.50;99.90;;;;;;5039802;28;20048;-57
2023/04/23 10:05:17;;;;;;;15.02;8.85;;;16.60;99.90;;;;;;5037908;28;20054;-57
2023/04/23 10:07:53;;;;;;;8.93;6.07;;;16.60;99.90;;;;;;5004685;28;20121;-57
2023/04/23 10:10:19;;;;;;;12.15;7.90;;;16.60;99.90;;;;;;5032116;28;20044;-58
2023/04/23 10:12:46;;;;;;;13.23;7.63;;;16.70;99.90;;;;;;5018987;28;20045;-57
2023/04/23 10:15:13;;;;;;;10.20;6.30;;;16.90;99.90;;;;;;5037448;28;20577;-57
2023/04/23 10:17:40;;;;;;;10.98;6.47;;;17.10;99.90;;;;;;5026346;28;20076;-57
2023/04/23 10:20:08;;;;;;;9.70;6.40;;;17.20;99.90;;;;;;5039518;28;20387;-56
2023/04/23 10:22:36;;;;;;;7.97;5.13;;;17.20;99.90;;;;;;5037326;28;20056;-57
2023/04/23 10:25:09;;;;;;;9.55;5.00;;;17.30;99.90;;;;;;5034145;28;20052;-57
2023/04/23 10:27:40;;;;;;;7.20;5.00;;;17.30;99.90;;;;;;5031690;28;20029;-57
2023/04/23 10:30:08;;;;;;;9.05;4.25;;;17.50;99.90;;;;;;5033044;28;20061;-57
2023/04/23 10:32:34;;;;;;;8.80;4.78;;;17.50;99.90;;;;;;5034339;28;20068;-56
2023/04/23 10:35:00;;;;;;;10.55;5.07;;;17.50;99.90;;;;;;5029649;28;20435;-56
2023/04/23 10:37:27;;;;;;;10.73;5.72;;;17.60;99.90;;;;;;5038321;28;20038;-55
2023/04/23 10:39:55;;;;;;;7.18;5.13;;;17.60;99.90;;;;;;5032518;28;20048;-56
2023/04/23 10:42:22;;;;;;;7.40;4.53;;;17.50;99.90;;;;;;5036760;28;20041;-56
2023/04/23 10:44:48;;;;;;;7.75;4.43;;;17.50;99.90;;;;;;5019270;28;20124;-56
2023/04/23 10:47:15;;;;;;;9.13;4.63;;;17.50;99.90;;;;;;5037225;28;20033;-56
2023/04/23 10:49:42;;;;;;;7.63;4.20;;;17.60;99.90;;;;;;5035309;28;20034;-56
2023/04/23 10:52:17;;;;;;;8.27;5.03;;;17.60;99.90;;;;;;5026913;28;20151;-55
2023/04/23 10:54:47;;;;;;;8.70;4.67;;;17.60;99.90;;;;;;5040362;28;20037;-56
2023/04/23 10:57:13;;;;;;;9.55;4.80;;;17.50;99.90;;;;;;5038177;28;20288;-56
2023/04/23 10:59:53;;;;;;;7.95;4.90;;;17.60;99.90;;;;;;5033446;28;20049;-56
2023/04/23 11:02:19;;;;;;;8.73;5.13;;;17.60;99.90;;;;;;5040027;28;20041;-56
2023/04/23 11:04:46;;;;;;;9.43;3.97;;;17.60;99.90;;;;;;5033710;28;20048;-56
2023/04/23 11:07:13;;;;;;;9.13;4.72;;;17.70;99.90;;;;;;5036025;28;20045;-56
2023/04/23 11:09:48;;;;;;;5.20;3.67;;;18.00;99.90;;;;;;5038952;28;20117;-55
2023/04/23 11:12:23;;;;;;;11.23;4.25;;;18.10;99.90;;;;;;5038919;28;20052;-56
2023/04/23 11:14:50;;;;;;;9.25;3.72;;;18.20;99.90;;;;;;5038543;28;20143;-57
2023/04/23 11:17:23;;;;;;;8.32;3.55;;;18.20;99.90;;;;;;5038868;28;20061;-56
2023/04/23 11:20:12;;;;;;;9.13;3.15;;;18.20;99.90;;;;;;5022092;28;20088;-56
2023/04/23 11:22:48;;;;;;;7.00;2.55;;;18.30;99.90;;;;;;5039289;28;20077;-56
2023/04/23 11:25:22;;;;;;;9.35;2.88;;;18.20;99.90;;;;;;5038396;28;20116;-56
2023/04/23 11:27:50;;;;;;;8.40;3.25;;;18.10;99.90;;;;;;5039223;28;20125;-56
2023/04/23 11:30:22;;;;;;;7.05;2.97;;;18.00;99.90;;;;;;5038484;28;20375;-56
2023/04/23 11:32:50;;;;;;;4.90;1.85;;;18.10;99.90;;;;;;5022140;28;20042;-56
2023/04/23 11:35:21;;;;;;;10.90;2.50;;;18.30;99.90;;;;;;5038871;28;20054;-56
2023/04/23 11:37:48;;;;;;;6.43;2.40;;;18.60;99.90;;;;;;5038904;28;20042;-57
2023/04/23 11:40:18;;;;;;;6.95;2.10;;;18.70;99.90;;;;;;5039064;28;20041;-56
2023/04/23 11:42:53;;;;;;;6.78;2.20;;;18.70;99.90;;;;;;5037136;28;20108;-57
2023/04/23 11:45:27;;;;;;;6.38;1.80;;;18.80;99.90;;;;;;5039429;28;20077;-56
2023/04/23 11:47:59;;;;;;;7.22;1.70;;;18.70;99.90;;;;;;5038568;28;20049;-57
2023/04/23 11:50:29;;;;;;;9.68;2.65;;;18.50;99.90;;;;;;5039271;28;20060;-55
2023/04/23 11:52:56;;;;;;;8.88;2.25;;;18.40;99.90;;;;;;5039147;28;20120;-56
2023/04/23 11:55:22;;;;;;;5.82;1.70;;;18.20;99.50;;;;;;5038262;28;20045;-56
2023/04/23 11:57:49;;;;;;;6.40;1.83;;;18.10;99.70;;;;;;5038983;28;20040;-56
2023/04/23 12:00:19;;;;;;;6.07;1.88;;;18.00;99.70;;;;;;5020171;28;20083;-55
2023/04/23 12:02:54;;;;;;;8.85;2.00;;;18.00;99.90;;;;;;5039166;28;20029;-58
2023/04/23 12:05:35;;;;;;;6.15;1.63;;;18.10;99.90;;;;;;5038856;28;20101;-56
2023/04/23 12:08:14;;;;;;;3.90;1.15;;;18.20;98.70;;;;;;5038212;28;20080;-54
2023/04/23 12:10:48;;;;;;;6.20;1.73;;;18.20;99.50;;;;;;5038862;28;20120;-57
2023/04/23 12:13:25;;;;;;;8.48;1.83;;;18.30;99.30;;;;;;5019386;28;20136;-55
2023/04/23 12:15:58;;;;;;;6.32;2.30;;;18.40;99.30;;;;;;5039196;28;20088;-56
2023/04/23 12:18:31;;;;;;;6.60;1.67;;;18.50;98.70;;;;;;5038924;28;20042;-56
2023/04/23 12:21:11;;;;;;;4.57;1.42;;;18.60;98.40;;;;;;5038230;28;20418;-56
2023/04/23 12:23:38;;;;;;;9.48;1.60;;;18.70;97.90;;;;;;5038303;28;20037;-56
2023/04/23 12:26:10;;;;;;;6.80;1.45;;;18.70;98.70;;;;;;5038008;28;20383;-55
2023/04/23 12:28:45;;;;;;;4.60;1.33;;;18.80;96.60;;;;;;5039005;28;20076;-57
2023/04/23 12:31:18;;;;;;;8.02;2.03;;;18.70;95.40;;;;;;5038424;28;20042;-56
2023/04/23 12:33:44;;;;;;;6.45;1.90;;;18.80;97.30;;;;;;5037864;28;20046;-56